sensor_id;sensor_type;location;lat;lon;timestamp;P1;durP1;ratioP1;P2;durP2;ratioP2
12469;SDS011;36499;46.484;13.832;2023-06-22T00:01:18;19.87;;;11.90;;
12469;SDS011;36499;46.484;13.832;2023-06-22T00:03:46;18.63;;;12.03;;
12469;SDS011;36499;46.484;13.832;2023-06-22T00:06:13;23.53;;;13.10;;
12469;SDS011;36499;46.484;13.832;2023-06-22T00:08:40;20.07;;;12.03;;
12469;SDS011;36499;46.484;13.832;2023-06-22T00:11:07;20.60;;;12.13;;
12469;SDS011;36499;46.484;13.832;2023-06-22T00:13:34;16.77;;;12.20;;
12469;SDS011;36499;46.484;13.832;2023-06-22T00:16:02;16.17;;;11.53;;
12469;SDS011;36499;46.484;13.832;2023-06-22T00:18:30;20.07;;;11.30;;
12469;SDS011;36499;46.484;13.832;2023-06-22T00:20:57;17.03;;;12.43;;
12469;SDS011;36499;46.484;13.832;2023-06-22T00:23:26;15.67;;;11.83;;
12469;SDS011;36499;46.484;13.832;2023-06-22T00:25:53;21.03;;;11.57;;
12469;SDS011;36499;46.484;13.832;2023-06-22T00:28:20;18.40;;;11.70;;
12469;SDS011;36499;46.484;13.832;2023-06-22T00:30:48;14.50;;;11.27;;
12469;SDS011;36499;46.484;13.832;2023-06-22T00:33:15;14.57;;;10.53;;
12469;SDS011;36499;46.484;13.832;2023-06-22T00:35:43;17.87;;;11.50;;
12469;SDS011;36499;46.484;13.832;2023-06-22T00:38:11;19.60;;;11.60;;
12469;SDS011;36499;46.484;13.832;2023-06-22T00:40:38;16.73;;;11.50;;
12469;SDS011;36499;46.484;13.832;2023-06-22T00:43:05;18.70;;;12.17;;
12469;SDS011;36499;46.484;13.832;2023-06-22T00:45:32;16.90;;;11.70;;
12469;SDS011;36499;46.484;13.832;2023-06-22T00:47:59;14.23;;;10.70;;
12469;SDS011;36499;46.484;13.832;2023-06-22T00:50:28;14.87;;;10.77;;
12469;SDS011;36499;46.484;13.832;2023-06-22T00:53:03;20.47;;;11.97;;
12469;SDS011;36499;46.484;13.832;2023-06-22T00:55:33;15.97;;;11.37;;
12469;SDS011;36499;46.484;13.832;2023-06-22T00:58:03;20.40;;;12.77;;
12469;SDS011;36499;46.484;13.832;2023-06-22T01:00:35;20.27;;;11.60;;
12469;SDS011;36499;46.484;13.832;2023-06-22T01:03:03;16.20;;;12.10;;
12469;SDS011;36499;46.484;13.832;2023-06-22T01:05:34;19.30;;;12.57;;
12469;SDS011;36499;46.484;13.832;2023-06-22T01:08:12;16.10;;;12.07;;
12469;SDS011;36499;46.484;13.832;2023-06-22T01:10:50;16.50;;;11.53;;
12469;SDS011;36499;46.484;13.832;2023-06-22T01:13:32;17.07;;;12.23;;
12469;SDS011;36499;46.484;13.832;2023-06-22T01:16:09;15.57;;;11.77;;
12469;SDS011;36499;46.484;13.832;2023-06-22T01:18:45;15.03;;;11.10;;
12469;SDS011;36499;46.484;13.832;2023-06-22T01:21:17;18.13;;;11.90;;
12469;SDS011;36499;46.484;13.832;2023-06-22T01:23:51;18.77;;;12.40;;
12469;SDS011;36499;46.484;13.832;2023-06-22T01:26:29;13.57;;;11.23;;
12469;SDS011;36499;46.484;13.832;2023-06-22T01:29:06;15.83;;;11.77;;
12469;SDS011;36499;46.484;13.832;2023-06-22T01:31:38;19.20;;;11.90;;
12469;SDS011;36499;46.484;13.832;2023-06-22T01:34:08;18.50;;;12.20;;
12469;SDS011;36499;46.484;13.832;2023-06-22T01:36:37;18.87;;;11.50;;
12469;SDS011;36499;46.484;13.832;2023-06-22T01:39:06;19.80;;;11.83;;
12469;SDS011;36499;46.484;13.832;2023-06-22T01:41:35;19.30;;;12.03;;
12469;SDS011;36499;46.484;13.832;2023-06-22T01:44:04;16.47;;;11.40;;
12469;SDS011;36499;46.484;13.832;2023-06-22T01:46:35;17.77;;;11.50;;
12469;SDS011;36499;46.484;13.832;2023-06-22T01:49:04;25.03;;;12.50;;
12469;SDS011;36499;46.484;13.832;2023-06-22T01:51:32;19.03;;;12.00;;
12469;SDS011;36499;46.484;13.832;2023-06-22T01:54:00;21.73;;;12.37;;
12469;SDS011;36499;46.484;13.832;2023-06-22T01:56:28;18.87;;;12.47;;
12469;SDS011;36499;46.484;13.832;2023-06-22T01:58:57;18.97;;;12.93;;
12469;SDS011;36499;46.484;13.832;2023-06-22T02:01:39;24.87;;;12.27;;
12469;SDS011;36499;46.484;13.832;2023-06-22T02:04:11;19.60;;;11.90;;
12469;SDS011;36499;46.484;13.832;2023-06-22T02:06:46;19.10;;;12.10;;
12469;SDS011;36499;46.484;13.832;2023-06-22T02:09:19;19.20;;;12.67;;
12469;SDS011;36499;46.484;13.832;2023-06-22T02:11:50;17.37;;;12.20;;
12469;SDS011;36499;46.484;13.832;2023-06-22T02:14:22;14.50;;;12.03;;
12469;SDS011;36499;46.484;13.832;2023-06-22T02:16:52;17.80;;;12.40;;
12469;SDS011;36499;46.484;13.832;2023-06-22T02:19:22;17.13;;;11.90;;
12469;SDS011;36499;46.484;13.832;2023-06-22T02:21:50;16.60;;;12.13;;
12469;SDS011;36499;46.484;13.832;2023-06-22T02:24:17;18.70;;;12.23;;
12469;SDS011;36499;46.484;13.832;2023-06-22T02:26:44;18.80;;;11.47;;
12469;SDS011;36499;46.484;13.832;2023-06-22T02:29:11;21.93;;;11.50;;
12469;SDS011;36499;46.484;13.832;2023-06-22T02:31:38;15.63;;;11.43;;
12469;SDS011;36499;46.484;13.832;2023-06-22T02:34:07;21.33;;;11.97;;
12469;SDS011;36499;46.484;13.832;2023-06-22T02:36:34;16.80;;;10.70;;
12469;SDS011;36499;46.484;13.832;2023-06-22T02:39:01;20.70;;;12.03;;
12469;SDS011;36499;46.484;13.832;2023-06-22T02:41:28;14.40;;;11.57;;
12469;SDS011;36499;46.484;13.832;2023-06-22T02:43:55;15.27;;;11.60;;
12469;SDS011;36499;46.484;13.832;2023-06-22T02:46:22;16.60;;;11.40;;
12469;SDS011;36499;46.484;13.832;2023-06-22T02:48:49;16.67;;;12.37;;
12469;SDS011;36499;46.484;13.832;2023-06-22T02:51:18;16.00;;;11.00;;
12469;SDS011;36499;46.484;13.832;2023-06-22T02:53:45;13.77;;;10.87;;
12469;SDS011;36499;46.484;13.832;2023-06-22T02:56:12;16.17;;;11.20;;
12469;SDS011;36499;46.484;13.832;2023-06-22T02:58:40;20.83;;;12.37;;
12469;SDS011;36499;46.484;13.832;2023-06-22T03:01:08;16.17;;;11.70;;
12469;SDS011;36499;46.484;13.832;2023-06-22T03:03:38;17.40;;;11.90;;
12469;SDS011;36499;46.484;13.832;2023-06-22T03:06:05;17.13;;;11.57;;
12469;SDS011;36499;46.484;13.832;2023-06-22T03:08:33;20.60;;;11.97;;
12469;SDS011;36499;46.484;13.832;2023-06-22T03:11:00;18.03;;;11.97;;
12469;SDS011;36499;46.484;13.832;2023-06-22T03:13:27;16.97;;;11.37;;
12469;SDS011;36499;46.484;13.832;2023-06-22T03:15:54;16.23;;;11.93;;
12469;SDS011;36499;46.484;13.832;2023-06-22T03:18:21;16.60;;;11.23;;
12469;SDS011;36499;46.484;13.832;2023-06-22T03:20:48;17.70;;;11.60;;
12469;SDS011;36499;46.484;13.832;2023-06-22T03:23:15;18.23;;;12.23;;
12469;SDS011;36499;46.484;13.832;2023-06-22T03:25:44;20.33;;;12.83;;
12469;SDS011;36499;46.484;13.832;2023-06-22T03:28:11;16.93;;;11.90;;
12469;SDS011;36499;46.484;13.832;2023-06-22T03:30:38;18.23;;;12.30;;
12469;SDS011;36499;46.484;13.832;2023-06-22T03:33:05;17.83;;;11.53;;
12469;SDS011;36499;46.484;13.832;2023-06-22T03:35:32;16.47;;;12.50;;
12469;SDS011;36499;46.484;13.832;2023-06-22T03:38:00;17.10;;;12.40;;
12469;SDS011;36499;46.484;13.832;2023-06-22T03:40:27;20.87;;;12.70;;
12469;SDS011;36499;46.484;13.832;2023-06-22T03:42:55;13.97;;;12.07;;
12469;SDS011;36499;46.484;13.832;2023-06-22T03:45:22;18.90;;;12.93;;
12469;SDS011;36499;46.484;13.832;2023-06-22T03:47:49;13.83;;;12.03;;
12469;SDS011;36499;46.484;13.832;2023-06-22T03:50:16;18.60;;;12.17;;
12469;SDS011;36499;46.484;13.832;2023-06-22T03:52:45;18.23;;;12.57;;
12469;SDS011;36499;46.484;13.832;2023-06-22T03:55:12;18.50;;;12.90;;
12469;SDS011;36499;46.484;13.832;2023-06-22T03:57:39;19.83;;;12.50;;
12469;SDS011;36499;46.484;13.832;2023-06-22T04:00:08;17.80;;;12.67;;
12469;SDS011;36499;46.484;13.832;2023-06-22T04:02:36;19.67;;;13.27;;
12469;SDS011;36499;46.484;13.832;2023-06-22T04:05:04;16.87;;;12.80;;
12469;SDS011;36499;46.484;13.832;2023-06-22T04:07:32;15.60;;;11.97;;
12469;SDS011;36499;46.484;13.832;2023-06-22T04:09:59;19.07;;;12.77;;
12469;SDS011;36499;46.484;13.832;2023-06-22T04:12:26;24.70;;;12.40;;
12469;SDS011;36499;46.484;13.832;2023-06-22T04:14:53;15.60;;;11.80;;
12469;SDS011;36499;46.484;13.832;2023-06-22T04:17:21;20.67;;;13.33;;
12469;SDS011;36499;46.484;13.832;2023-06-22T04:19:50;17.17;;;12.97;;
12469;SDS011;36499;46.484;13.832;2023-06-22T04:22:17;20.70;;;12.60;;
12469;SDS011;36499;46.484;13.832;2023-06-22T04:24:44;22.70;;;12.97;;
12469;SDS011;36499;46.484;13.832;2023-06-22T04:27:11;16.63;;;12.10;;
12469;SDS011;36499;46.484;13.832;2023-06-22T04:29:38;20.73;;;12.40;;
12469;SDS011;36499;46.484;13.832;2023-06-22T04:32:13;20.33;;;12.70;;
12469;SDS011;36499;46.484;13.832;2023-06-22T04:34:42;19.73;;;12.90;;
12469;SDS011;36499;46.484;13.832;2023-06-22T04:37:09;19.40;;;13.23;;
12469;SDS011;36499;46.484;13.832;2023-06-22T04:39:40;25.93;;;14.00;;
12469;SDS011;36499;46.484;13.832;2023-06-22T04:42:08;18.83;;;12.53;;
12469;SDS011;36499;46.484;13.832;2023-06-22T04:44:35;18.07;;;12.77;;
12469;SDS011;36499;46.484;13.832;2023-06-22T04:47:02;17.70;;;13.60;;
12469;SDS011;36499;46.484;13.832;2023-06-22T04:49:33;18.37;;;12.47;;
12469;SDS011;36499;46.484;13.832;2023-06-22T04:52:04;17.20;;;12.27;;
12469;SDS011;36499;46.484;13.832;2023-06-22T04:54:34;21.20;;;12.13;;
12469;SDS011;36499;46.484;13.832;2023-06-22T04:57:04;19.03;;;11.97;;
12469;SDS011;36499;46.484;13.832;2023-06-22T04:59:35;18.23;;;13.10;;
12469;SDS011;36499;46.484;13.832;2023-06-22T05:02:04;20.60;;;12.00;;
12469;SDS011;36499;46.484;13.832;2023-06-22T05:04:32;17.20;;;12.33;;
12469;SDS011;36499;46.484;13.832;2023-06-22T05:07:01;22.60;;;12.10;;
12469;SDS011;36499;46.484;13.832;2023-06-22T05:09:30;20.67;;;12.27;;
12469;SDS011;36499;46.484;13.832;2023-06-22T05:11:58;20.50;;;12.70;;
12469;SDS011;36499;46.484;13.832;2023-06-22T05:14:27;18.70;;;12.63;;
12469;SDS011;36499;46.484;13.832;2023-06-22T05:16:54;23.60;;;13.30;;
12469;SDS011;36499;46.484;13.832;2023-06-22T05:19:23;18.70;;;12.53;;
12469;SDS011;36499;46.484;13.832;2023-06-22T05:21:58;22.30;;;12.93;;
12469;SDS011;36499;46.484;13.832;2023-06-22T05:24:26;24.20;;;13.17;;
12469;SDS011;36499;46.484;13.832;2023-06-22T05:26:53;20.37;;;12.90;;
12469;SDS011;36499;46.484;13.832;2023-06-22T05:29:20;19.33;;;12.70;;
12469;SDS011;36499;46.484;13.832;2023-06-22T05:31:48;19.23;;;12.23;;
12469;SDS011;36499;46.484;13.832;2023-06-22T05:34:15;23.40;;;12.73;;
12469;SDS011;36499;46.484;13.832;2023-06-22T05:36:42;16.73;;;12.63;;
12469;SDS011;36499;46.484;13.832;2023-06-22T05:39:12;20.17;;;12.90;;
12469;SDS011;36499;46.484;13.832;2023-06-22T05:41:42;19.70;;;12.73;;
12469;SDS011;36499;46.484;13.832;2023-06-22T05:44:10;20.83;;;13.17;;
12469;SDS011;36499;46.484;13.832;2023-06-22T05:46:40;18.07;;;12.33;;
12469;SDS011;36499;46.484;13.832;2023-06-22T05:49:09;15.63;;;12.23;;
12469;SDS011;36499;46.484;13.832;2023-06-22T05:51:36;20.03;;;11.77;;
12469;SDS011;36499;46.484;13.832;2023-06-22T05:54:03;22.77;;;13.03;;
12469;SDS011;36499;46.484;13.832;2023-06-22T05:56:30;18.87;;;11.30;;
12469;SDS011;36499;46.484;13.832;2023-06-22T05:58:59;21.27;;;11.43;;
12469;SDS011;36499;46.484;13.832;2023-06-22T06:01:26;21.37;;;12.43;;
12469;SDS011;36499;46.484;13.832;2023-06-22T06:03:53;17.07;;;12.03;;
12469;SDS011;36499;46.484;13.832;2023-06-22T06:06:20;18.30;;;12.20;;
12469;SDS011;36499;46.484;13.832;2023-06-22T06:08:47;17.53;;;11.23;;
12469;SDS011;36499;46.484;13.832;2023-06-22T06:11:14;18.20;;;11.60;;
12469;SDS011;36499;46.484;13.832;2023-06-22T06:13:41;21.87;;;11.80;;
12469;SDS011;36499;46.484;13.832;2023-06-22T06:16:10;17.20;;;11.10;;
12469;SDS011;36499;46.484;13.832;2023-06-22T06:18:37;18.97;;;11.87;;
12469;SDS011;36499;46.484;13.832;2023-06-22T06:21:04;20.80;;;11.33;;
12469;SDS011;36499;46.484;13.832;2023-06-22T06:23:31;17.90;;;11.20;;
12469;SDS011;36499;46.484;13.832;2023-06-22T06:25:58;19.50;;;11.00;;
12469;SDS011;36499;46.484;13.832;2023-06-22T06:28:26;15.97;;;11.53;;
12469;SDS011;36499;46.484;13.832;2023-06-22T06:30:53;17.10;;;11.07;;
12469;SDS011;36499;46.484;13.832;2023-06-22T06:33:21;17.87;;;10.97;;
12469;SDS011;36499;46.484;13.832;2023-06-22T06:35:49;17.37;;;11.63;;
12469;SDS011;36499;46.484;13.832;2023-06-22T06:38:16;17.00;;;11.27;;
12469;SDS011;36499;46.484;13.832;2023-06-22T06:40:43;19.03;;;11.33;;
12469;SDS011;36499;46.484;13.832;2023-06-22T06:43:10;18.67;;;10.70;;
12469;SDS011;36499;46.484;13.832;2023-06-22T06:45:37;17.03;;;11.37;;
12469;SDS011;36499;46.484;13.832;2023-06-22T06:48:05;17.97;;;11.40;;
12469;SDS011;36499;46.484;13.832;2023-06-22T06:50:33;22.10;;;11.73;;
12469;SDS011;36499;46.484;13.832;2023-06-22T06:53:00;16.30;;;10.77;;
12469;SDS011;36499;46.484;13.832;2023-06-22T06:55:27;18.63;;;10.77;;
12469;SDS011;36499;46.484;13.832;2023-06-22T06:57:57;20.07;;;11.43;;
12469;SDS011;36499;46.484;13.832;2023-06-22T07:00:25;23.93;;;11.20;;
12469;SDS011;36499;46.484;13.832;2023-06-22T07:02:52;20.13;;;11.13;;
12469;SDS011;36499;46.484;13.832;2023-06-22T07:05:19;18.90;;;10.60;;
12469;SDS011;36499;46.484;13.832;2023-06-22T07:07:47;19.87;;;10.50;;
12469;SDS011;36499;46.484;13.832;2023-06-22T07:10:15;19.37;;;10.83;;
12469;SDS011;36499;46.484;13.832;2023-06-22T07:12:42;26.43;;;10.57;;
12469;SDS011;36499;46.484;13.832;2023-06-22T07:15:09;20.20;;;10.80;;
12469;SDS011;36499;46.484;13.832;2023-06-22T07:17:37;20.53;;;10.33;;
12469;SDS011;36499;46.484;13.832;2023-06-22T07:20:06;17.40;;;9.90;;
12469;SDS011;36499;46.484;13.832;2023-06-22T07:22:35;18.90;;;10.20;;
12469;SDS011;36499;46.484;13.832;2023-06-22T07:25:04;18.37;;;9.87;;
12469;SDS011;36499;46.484;13.832;2023-06-22T07:27:34;18.33;;;10.57;;
12469;SDS011;36499;46.484;13.832;2023-06-22T07:30:04;18.10;;;10.97;;
12469;SDS011;36499;46.484;13.832;2023-06-22T07:32:33;16.60;;;9.77;;
12469;SDS011;36499;46.484;13.832;2023-06-22T07:35:00;14.87;;;9.50;;
12469;SDS011;36499;46.484;13.832;2023-06-22T07:37:28;16.33;;;10.50;;
12469;SDS011;36499;46.484;13.832;2023-06-22T07:39:55;17.80;;;10.30;;
12469;SDS011;36499;46.484;13.832;2023-06-22T07:42:25;17.10;;;10.57;;
12469;SDS011;36499;46.484;13.832;2023-06-22T07:44:52;14.90;;;10.23;;
12469;SDS011;36499;46.484;13.832;2023-06-22T07:47:20;18.10;;;11.10;;
12469;SDS011;36499;46.484;13.832;2023-06-22T07:49:50;18.10;;;9.90;;
12469;SDS011;36499;46.484;13.832;2023-06-22T07:52:19;12.80;;;9.57;;
12469;SDS011;36499;46.484;13.832;2023-06-22T07:54:47;14.67;;;9.50;;
12469;SDS011;36499;46.484;13.832;2023-06-22T07:57:14;15.33;;;9.73;;
12469;SDS011;36499;46.484;13.832;2023-06-22T07:59:42;20.53;;;10.17;;
12469;SDS011;36499;46.484;13.832;2023-06-22T08:02:09;17.20;;;9.83;;
12469;SDS011;36499;46.484;13.832;2023-06-22T08:04:36;24.50;;;10.43;;
12469;SDS011;36499;46.484;13.832;2023-06-22T08:07:04;15.53;;;9.77;;
12469;SDS011;36499;46.484;13.832;2023-06-22T08:09:32;14.40;;;9.33;;
12469;SDS011;36499;46.484;13.832;2023-06-22T08:11:59;16.17;;;9.53;;
12469;SDS011;36499;46.484;13.832;2023-06-22T08:14:26;20.20;;;10.63;;
12469;SDS011;36499;46.484;13.832;2023-06-22T08:16:55;13.67;;;9.27;;
12469;SDS011;36499;46.484;13.832;2023-06-22T08:19:22;15.07;;;9.43;;
12469;SDS011;36499;46.484;13.832;2023-06-22T08:21:49;15.13;;;9.53;;
12469;SDS011;36499;46.484;13.832;2023-06-22T08:24:16;17.30;;;9.87;;
12469;SDS011;36499;46.484;13.832;2023-06-22T08:26:43;20.50;;;10.23;;
12469;SDS011;36499;46.484;13.832;2023-06-22T08:29:11;15.73;;;9.40;;
12469;SDS011;36499;46.484;13.832;2023-06-22T08:31:38;13.77;;;8.93;;
12469;SDS011;36499;46.484;13.832;2023-06-22T08:34:06;15.20;;;8.93;;
12469;SDS011;36499;46.484;13.832;2023-06-22T08:36:33;16.87;;;8.83;;
12469;SDS011;36499;46.484;13.832;2023-06-22T08:39:02;18.40;;;8.63;;
12469;SDS011;36499;46.484;13.832;2023-06-22T08:41:29;16.23;;;8.73;;
12469;SDS011;36499;46.484;13.832;2023-06-22T08:43:57;12.70;;;8.10;;
12469;SDS011;36499;46.484;13.832;2023-06-22T08:46:24;18.57;;;8.50;;
12469;SDS011;36499;46.484;13.832;2023-06-22T08:48:55;13.53;;;7.53;;
12469;SDS011;36499;46.484;13.832;2023-06-22T08:51:24;13.80;;;8.13;;
12469;SDS011;36499;46.484;13.832;2023-06-22T08:53:51;17.20;;;8.80;;
12469;SDS011;36499;46.484;13.832;2023-06-22T08:56:18;21.53;;;8.37;;
12469;SDS011;36499;46.484;13.832;2023-06-22T08:58:45;18.63;;;8.07;;
12469;SDS011;36499;46.484;13.832;2023-06-22T09:01:12;15.63;;;8.50;;
12469;SDS011;36499;46.484;13.832;2023-06-22T09:03:40;18.60;;;8.70;;
12469;SDS011;36499;46.484;13.832;2023-06-22T09:06:08;19.27;;;8.83;;
12469;SDS011;36499;46.484;13.832;2023-06-22T09:08:36;21.07;;;9.47;;
12469;SDS011;36499;46.484;13.832;2023-06-22T09:11:03;15.83;;;8.00;;
12469;SDS011;36499;46.484;13.832;2023-06-22T09:13:30;18.03;;;8.03;;
12469;SDS011;36499;46.484;13.832;2023-06-22T09:15:59;15.50;;;7.97;;
12469;SDS011;36499;46.484;13.832;2023-06-22T09:18:26;19.53;;;7.93;;
12469;SDS011;36499;46.484;13.832;2023-06-22T09:20:54;19.77;;;8.47;;
12469;SDS011;36499;46.484;13.832;2023-06-22T09:23:21;18.47;;;8.23;;
12469;SDS011;36499;46.484;13.832;2023-06-22T09:25:49;22.57;;;8.03;;
12469;SDS011;36499;46.484;13.832;2023-06-22T09:28:16;15.73;;;7.93;;
12469;SDS011;36499;46.484;13.832;2023-06-22T09:30:43;23.30;;;8.13;;
12469;SDS011;36499;46.484;13.832;2023-06-22T09:33:11;18.50;;;8.03;;
12469;SDS011;36499;46.484;13.832;2023-06-22T09:35:38;14.07;;;7.93;;
12469;SDS011;36499;46.484;13.832;2023-06-22T09:38:05;16.13;;;8.00;;
12469;SDS011;36499;46.484;13.832;2023-06-22T09:40:32;16.53;;;7.97;;
12469;SDS011;36499;46.484;13.832;2023-06-22T09:43:06;19.87;;;7.83;;
12469;SDS011;36499;46.484;13.832;2023-06-22T09:45:33;13.17;;;7.57;;
12469;SDS011;36499;46.484;13.832;2023-06-22T09:48:00;22.90;;;8.27;;
12469;SDS011;36499;46.484;13.832;2023-06-22T09:50:27;24.73;;;7.47;;
12469;SDS011;36499;46.484;13.832;2023-06-22T09:52:54;16.53;;;7.13;;
12469;SDS011;36499;46.484;13.832;2023-06-22T09:55:21;21.50;;;8.23;;
12469;SDS011;36499;46.484;13.832;2023-06-22T09:57:48;26.23;;;8.43;;
12469;SDS011;36499;46.484;13.832;2023-06-22T10:00:17;23.43;;;7.93;;
12469;SDS011;36499;46.484;13.832;2023-06-22T10:02:45;17.90;;;8.10;;
12469;SDS011;36499;46.484;13.832;2023-06-22T10:05:13;18.90;;;7.93;;
12469;SDS011;36499;46.484;13.832;2023-06-22T10:07:40;11.90;;;7.60;;
12469;SDS011;36499;46.484;13.832;2023-06-22T10:10:09;21.67;;;9.80;;
12469;SDS011;36499;46.484;13.832;2023-06-22T10:12:40;26.83;;;11.83;;
12469;SDS011;36499;46.484;13.832;2023-06-22T10:15:09;26.70;;;11.43;;
12469;SDS011;36499;46.484;13.832;2023-06-22T10:17:38;16.50;;;13.47;;
12469;SDS011;36499;46.484;13.832;2023-06-22T10:20:06;18.33;;;8.60;;
12469;SDS011;36499;46.484;13.832;2023-06-22T10:22:37;20.23;;;8.50;;
12469;SDS011;36499;46.484;13.832;2023-06-22T10:25:06;21.17;;;8.03;;
12469;SDS011;36499;46.484;13.832;2023-06-22T10:27:34;13.77;;;8.40;;
12469;SDS011;36499;46.484;13.832;2023-06-22T10:30:01;17.00;;;8.37;;
12469;SDS011;36499;46.484;13.832;2023-06-22T10:32:30;13.20;;;8.37;;
12469;SDS011;36499;46.484;13.832;2023-06-22T10:34:59;22.43;;;8.60;;
12469;SDS011;36499;46.484;13.832;2023-06-22T10:37:26;15.13;;;8.50;;
12469;SDS011;36499;46.484;13.832;2023-06-22T10:39:53;13.93;;;8.20;;
12469;SDS011;36499;46.484;13.832;2023-06-22T10:42:20;22.83;;;8.10;;
12469;SDS011;36499;46.484;13.832;2023-06-22T10:44:47;11.83;;;7.93;;
12469;SDS011;36499;46.484;13.832;2023-06-22T10:47:14;11.20;;;7.57;;
12469;SDS011;36499;46.484;13.832;2023-06-22T10:49:41;16.83;;;8.30;;
12469;SDS011;36499;46.484;13.832;2023-06-22T10:52:10;19.47;;;8.50;;
12469;SDS011;36499;46.484;13.832;2023-06-22T10:54:37;15.93;;;8.57;;
12469;SDS011;36499;46.484;13.832;2023-06-22T10:57:05;15.93;;;8.30;;
12469;SDS011;36499;46.484;13.832;2023-06-22T10:59:32;19.47;;;8.80;;
12469;SDS011;36499;46.484;13.832;2023-06-22T11:02:00;22.47;;;8.70;;
12469;SDS011;36499;46.484;13.832;2023-06-22T11:04:27;19.73;;;8.20;;
12469;SDS011;36499;46.484;13.832;2023-06-22T11:06:54;12.83;;;8.40;;
12469;SDS011;36499;46.484;13.832;2023-06-22T11:09:23;16.63;;;8.20;;
12469;SDS011;36499;46.484;13.832;2023-06-22T11:11:51;16.00;;;8.60;;
12469;SDS011;36499;46.484;13.832;2023-06-22T11:14:19;22.13;;;8.70;;
12469;SDS011;36499;46.484;13.832;2023-06-22T11:16:48;17.77;;;7.93;;
12469;SDS011;36499;46.484;13.832;2023-06-22T11:19:15;19.33;;;8.03;;
12469;SDS011;36499;46.484;13.832;2023-06-22T11:21:42;20.50;;;9.27;;
12469;SDS011;36499;46.484;13.832;2023-06-22T11:24:09;17.23;;;8.80;;
12469;SDS011;36499;46.484;13.832;2023-06-22T11:26:37;14.40;;;7.97;;
12469;SDS011;36499;46.484;13.832;2023-06-22T11:29:04;23.77;;;8.43;;
12469;SDS011;36499;46.484;13.832;2023-06-22T11:31:33;20.40;;;8.37;;
12469;SDS011;36499;46.484;13.832;2023-06-22T11:34:00;16.83;;;7.97;;
12469;SDS011;36499;46.484;13.832;2023-06-22T11:36:28;17.13;;;8.57;;
12469;SDS011;36499;46.484;13.832;2023-06-22T11:38:57;19.40;;;8.17;;
12469;SDS011;36499;46.484;13.832;2023-06-22T11:41:25;16.07;;;8.23;;
12469;SDS011;36499;46.484;13.832;2023-06-22T11:43:53;23.80;;;8.60;;
12469;SDS011;36499;46.484;13.832;2023-06-22T11:46:20;17.40;;;8.50;;
12469;SDS011;36499;46.484;13.832;2023-06-22T11:48:47;16.10;;;8.87;;
12469;SDS011;36499;46.484;13.832;2023-06-22T11:51:15;14.70;;;8.80;;
12469;SDS011;36499;46.484;13.832;2023-06-22T11:53:42;14.37;;;9.10;;
12469;SDS011;36499;46.484;13.832;2023-06-22T11:56:09;15.47;;;8.80;;
12469;SDS011;36499;46.484;13.832;2023-06-22T11:58:36;19.23;;;9.30;;
12469;SDS011;36499;46.484;13.832;2023-06-22T12:01:04;19.23;;;9.80;;
12469;SDS011;36499;46.484;13.832;2023-06-22T12:03:31;23.33;;;9.47;;
12469;SDS011;36499;46.484;13.832;2023-06-22T12:05:59;17.70;;;9.90;;
12469;SDS011;36499;46.484;13.832;2023-06-22T12:08:26;19.83;;;9.70;;
12469;SDS011;36499;46.484;13.832;2023-06-22T12:10:53;18.97;;;10.17;;
12469;SDS011;36499;46.484;13.832;2023-06-22T12:13:20;19.20;;;10.27;;
12469;SDS011;36499;46.484;13.832;2023-06-22T12:15:47;16.23;;;10.00;;
12469;SDS011;36499;46.484;13.832;2023-06-22T12:18:18;20.60;;;10.77;;
12469;SDS011;36499;46.484;13.832;2023-06-22T12:20:46;20.07;;;10.43;;
12469;SDS011;36499;46.484;13.832;2023-06-22T12:23:14;17.50;;;10.07;;
12469;SDS011;36499;46.484;13.832;2023-06-22T12:25:41;16.20;;;10.20;;
12469;SDS011;36499;46.484;13.832;2023-06-22T12:28:08;18.03;;;10.20;;
12469;SDS011;36499;46.484;13.832;2023-06-22T12:30:35;15.37;;;10.63;;
12469;SDS011;36499;46.484;13.832;2023-06-22T12:33:02;17.27;;;9.57;;
12469;SDS011;36499;46.484;13.832;2023-06-22T12:35:30;16.53;;;9.40;;
12469;SDS011;36499;46.484;13.832;2023-06-22T12:37:58;18.37;;;9.70;;
12469;SDS011;36499;46.484;13.832;2023-06-22T12:40:25;19.17;;;9.93;;
12469;SDS011;36499;46.484;13.832;2023-06-22T12:42:52;17.97;;;9.77;;
12469;SDS011;36499;46.484;13.832;2023-06-22T12:45:19;22.20;;;9.83;;
12469;SDS011;36499;46.484;13.832;2023-06-22T12:47:46;18.47;;;9.40;;
12469;SDS011;36499;46.484;13.832;2023-06-22T12:50:15;19.60;;;9.80;;
12469;SDS011;36499;46.484;13.832;2023-06-22T12:52:43;21.20;;;10.50;;
12469;SDS011;36499;46.484;13.832;2023-06-22T12:55:10;20.60;;;9.87;;
12469;SDS011;36499;46.484;13.832;2023-06-22T12:57:37;20.03;;;9.57;;
12469;SDS011;36499;46.484;13.832;2023-06-22T13:00:05;16.47;;;9.70;;
12469;SDS011;36499;46.484;13.832;2023-06-22T13:02:35;18.13;;;9.47;;
12469;SDS011;36499;46.484;13.832;2023-06-22T13:05:02;15.73;;;9.40;;
12469;SDS011;36499;46.484;13.832;2023-06-22T13:07:31;21.83;;;10.17;;
12469;SDS011;36499;46.484;13.832;2023-06-22T13:09:59;20.40;;;10.40;;
12469;SDS011;36499;46.484;13.832;2023-06-22T13:12:26;22.70;;;10.10;;
12469;SDS011;36499;46.484;13.832;2023-06-22T13:14:53;17.97;;;10.17;;
12469;SDS011;36499;46.484;13.832;2023-06-22T13:17:20;16.77;;;10.20;;
12469;SDS011;36499;46.484;13.832;2023-06-22T13:19:48;18.43;;;9.90;;
12469;SDS011;36499;46.484;13.832;2023-06-22T13:22:25;20.53;;;10.53;;
12469;SDS011;36499;46.484;13.832;2023-06-22T13:24:56;16.10;;;10.57;;
12469;SDS011;36499;46.484;13.832;2023-06-22T13:27:25;15.77;;;10.27;;
12469;SDS011;36499;46.484;13.832;2023-06-22T13:29:52;17.33;;;10.13;;
12469;SDS011;36499;46.484;13.832;2023-06-22T13:32:19;12.27;;;9.67;;
12469;SDS011;36499;46.484;13.832;2023-06-22T13:34:46;19.60;;;10.70;;
12469;SDS011;36499;46.484;13.832;2023-06-22T13:37:14;22.73;;;10.10;;
12469;SDS011;36499;46.484;13.832;2023-06-22T13:39:41;15.43;;;9.47;;
12469;SDS011;36499;46.484;13.832;2023-06-22T13:42:08;24.10;;;10.47;;
12469;SDS011;36499;46.484;13.832;2023-06-22T13:44:37;15.67;;;10.10;;
12469;SDS011;36499;46.484;13.832;2023-06-22T13:47:04;17.80;;;10.67;;
12469;SDS011;36499;46.484;13.832;2023-06-22T13:49:32;15.63;;;10.10;;
12469;SDS011;36499;46.484;13.832;2023-06-22T13:51:59;21.50;;;10.13;;
12469;SDS011;36499;46.484;13.832;2023-06-22T13:54:28;17.57;;;10.57;;
12469;SDS011;36499;46.484;13.832;2023-06-22T13:56:55;19.13;;;10.60;;
12469;SDS011;36499;46.484;13.832;2023-06-22T13:59:22;17.97;;;10.80;;
12469;SDS011;36499;46.484;13.832;2023-06-22T14:01:52;17.23;;;10.53;;
12469;SDS011;36499;46.484;13.832;2023-06-22T14:04:21;16.33;;;10.53;;
12469;SDS011;36499;46.484;13.832;2023-06-22T14:06:49;16.13;;;10.47;;
12469;SDS011;36499;46.484;13.832;2023-06-22T14:09:16;21.23;;;10.77;;
12469;SDS011;36499;46.484;13.832;2023-06-22T14:11:43;21.80;;;10.53;;
12469;SDS011;36499;46.484;13.832;2023-06-22T14:14:10;13.77;;;9.73;;
12469;SDS011;36499;46.484;13.832;2023-06-22T14:16:37;15.97;;;10.63;;
12469;SDS011;36499;46.484;13.832;2023-06-22T14:19:06;19.83;;;11.10;;